createdAt,value
2018-08-22T00:00:05.194Z,15.50
2018-08-22T00:02:33.352Z,15.50
2018-08-22T00:05:01.520Z,15.40
2018-08-22T00:07:29.717Z,15.40
2018-08-22T00:09:57.961Z,15.40
2018-08-22T00:12:26.148Z,15.40
2018-08-22T00:14:54.289Z,15.40
2018-08-22T00:17:22.413Z,15.40
2018-08-22T00:19:50.569Z,15.40
2018-08-22T00:22:18.755Z,15.40
2018-08-22T00:24:46.896Z,15.30
2018-08-22T00:27:15.048Z,15.30
2018-08-22T00:29:43.480Z,15.20
2018-08-22T00:32:11.635Z,15.20
2018-08-22T00:34:39.991Z,15.20
2018-08-22T00:37:08.204Z,15.20
2018-08-22T00:39:36.359Z,15.20
2018-08-22T00:42:04.467Z,15.20
2018-08-22T00:44:32.624Z,15.10
2018-08-22T00:47:00.802Z,15.10
2018-08-22T00:49:28.977Z,15.00
2018-08-22T00:51:57.303Z,15.10
2018-08-22T00:54:25.427Z,14.90
2018-08-22T00:56:53.563Z,14.90
2018-08-22T00:59:21.721Z,14.90
2018-08-22T01:01:49.885Z,14.90
2018-08-22T01:04:18.045Z,14.90
2018-08-22T01:06:46.239Z,15.00
2018-08-22T01:09:14.380Z,14.90
2018-08-22T01:11:42.501Z,14.90
2018-08-22T01:14:10.660Z,15.00
2018-08-22T01:16:38.819Z,15.00
2018-08-22T01:19:06.943Z,14.90
2018-08-22T01:21:35.125Z,14.90
2018-08-22T01:24:03.295Z,14.90
2018-08-22T01:26:31.432Z,14.90
2018-08-22T01:28:59.597Z,14.90
2018-08-22T01:31:27.825Z,14.80
2018-08-22T01:33:56.010Z,14.80
2018-08-22T01:36:24.176Z,14.80
2018-08-22T01:38:52.340Z,14.80
2018-08-22T01:41:20.527Z,14.80
2018-08-22T01:43:48.636Z,14.80
2018-08-22T01:46:16.840Z,14.80
2018-08-22T01:48:45.045Z,14.70
2018-08-22T01:51:13.217Z,14.70
2018-08-22T01:53:41.343Z,14.70
2018-08-22T01:56:09.521Z,14.60
2018-08-22T01:58:37.723Z,14.60
2018-08-22T02:01:05.854Z,14.60
2018-08-22T02:03:34.041Z,14.60
2018-08-22T02:06:02.214Z,14.50
2018-08-22T02:08:30.352Z,14.50
2018-08-22T02:10:58.530Z,14.50
2018-08-22T02:13:27.045Z,14.50
2018-08-22T02:15:55.257Z,14.50
2018-08-22T02:18:23.481Z,14.40
2018-08-22T02:20:51.645Z,14.40
2018-08-22T02:23:19.762Z,14.40
2018-08-22T02:25:48.029Z,14.30
2018-08-22T02:28:16.175Z,14.30
2018-08-22T02:30:44.331Z,14.20
2018-08-22T02:33:12.472Z,14.30
2018-08-22T02:35:40.671Z,14.30
2018-08-22T02:38:08.822Z,14.30
2018-08-22T02:40:36.986Z,14.30
2018-08-22T02:43:05.099Z,14.30
2018-08-22T02:45:33.252Z,14.30
2018-08-22T02:48:01.459Z,14.20
2018-08-22T02:50:30.641Z,14.20
2018-08-22T02:52:58.799Z,14.20
2018-08-22T03:02:34.940Z,14.10
2018-08-22T03:05:03.663Z,14.10
2018-08-22T03:07:32.371Z,14.00
2018-08-22T03:10:01.093Z,14.10
2018-08-22T03:12:36.297Z,14.10
2018-08-22T03:16:34.258Z,14.00
2018-08-22T03:19:02.952Z,13.90
2018-08-22T03:21:32.312Z,13.90
2018-08-22T03:24:00.933Z,13.90
2018-08-22T03:26:29.587Z,13.80
2018-08-22T03:28:58.518Z,13.90
2018-08-22T03:31:27.431Z,13.90
2018-08-22T03:33:56.075Z,13.90
2018-08-22T03:36:24.704Z,13.80
2018-08-22T03:38:53.443Z,13.80
2018-08-22T03:41:22.055Z,13.80
2018-08-22T03:43:50.641Z,13.80
2018-08-22T03:46:19.660Z,13.80
2018-08-22T03:48:48.342Z,13.70
2018-08-22T03:51:28.097Z,13.70
2018-08-22T03:53:56.687Z,13.70
2018-08-22T03:56:26.578Z,13.70
2018-08-22T03:58:55.362Z,13.70
2018-08-22T04:01:24.582Z,13.70
2018-08-22T04:03:53.640Z,13.70
2018-08-22T04:06:22.429Z,13.70
2018-08-22T04:08:51.094Z,13.60
2018-08-22T04:11:26.003Z,13.60
2018-08-22T04:13:54.948Z,13.70
2018-08-22T04:16:30.230Z,13.70
2018-08-22T04:18:59.413Z,13.60
2018-08-22T04:21:28.196Z,13.70
2018-08-22T04:23:57.664Z,13.70
2018-08-22T04:26:27.765Z,13.70
2018-08-22T04:28:56.663Z,13.80
2018-08-22T04:31:25.351Z,13.80
2018-08-22T04:33:53.886Z,13.80
2018-08-22T04:36:22.131Z,13.90
2018-08-22T04:38:50.309Z,13.90
2018-08-22T04:41:18.476Z,14.00
2018-08-22T04:43:46.817Z,14.00
2018-08-22T04:46:15.137Z,14.10
2018-08-22T04:48:43.322Z,14.20
2018-08-22T04:51:11.531Z,14.30
2018-08-22T04:53:39.716Z,14.30
2018-08-22T04:56:08.065Z,14.40
2018-08-22T04:58:36.258Z,14.50
2018-08-22T05:01:04.639Z,14.60
2018-08-22T05:03:32.876Z,14.70
2018-08-22T05:06:01.213Z,14.70
2018-08-22T05:08:29.686Z,14.80
2018-08-22T05:10:57.857Z,14.90
2018-08-22T05:13:26.089Z,15.00
2018-08-22T05:15:54.297Z,15.10
2018-08-22T05:18:22.485Z,15.30
2018-08-22T05:20:50.677Z,15.40
2018-08-22T05:23:18.791Z,15.60
2018-08-22T05:25:47.026Z,15.70
2018-08-22T05:28:15.309Z,15.90
2018-08-22T05:30:43.460Z,16.10
2018-08-22T05:33:11.665Z,16.20
2018-08-22T05:35:39.903Z,16.30
2018-08-22T05:38:08.095Z,16.30
2018-08-22T05:40:36.335Z,16.40
2018-08-22T05:43:04.748Z,16.40
2018-08-22T05:45:33.254Z,16.50
2018-08-22T05:48:01.512Z,16.60
2018-08-22T05:50:44.189Z,16.70
2018-08-22T05:53:19.832Z,16.90
2018-08-22T05:55:48.080Z,17.00
2018-08-22T05:58:16.345Z,17.10
2018-08-22T06:00:44.665Z,17.10
2018-08-22T06:03:12.864Z,17.20
2018-08-22T06:05:41.046Z,17.20
2018-08-22T06:08:09.234Z,17.20
2018-08-22T06:10:37.371Z,17.20
2018-08-22T06:13:05.551Z,17.30
2018-08-22T06:15:33.646Z,17.30
2018-08-22T06:18:01.807Z,17.40
2018-08-22T06:20:29.966Z,17.40
2018-08-22T06:22:58.142Z,17.50
2018-08-22T06:25:26.368Z,17.60
2018-08-22T06:27:54.460Z,17.60
2018-08-22T06:30:22.644Z,17.70
2018-08-22T06:32:50.780Z,17.90
2018-08-22T06:35:18.862Z,17.90
2018-08-22T06:37:47.029Z,18.00
2018-08-22T06:40:15.108Z,18.10
2018-08-22T06:42:43.192Z,18.10
2018-08-22T06:45:11.308Z,18.20
2018-08-22T06:47:39.403Z,18.30
2018-08-22T06:50:07.616Z,18.30
2018-08-22T06:52:35.671Z,18.30
2018-08-22T06:55:03.845Z,18.30
2018-08-22T06:57:31.979Z,18.40
2018-08-22T07:00:00.190Z,18.50
2018-08-22T07:02:28.316Z,18.50
2018-08-22T07:04:56.397Z,18.60
2018-08-22T07:07:24.483Z,18.60
2018-08-22T07:09:52.646Z,18.80
2018-08-22T07:12:20.816Z,18.90
2018-08-22T07:14:48.923Z,19.10
2018-08-22T07:17:17.093Z,19.30
2018-08-22T07:19:45.295Z,19.60
2018-08-22T07:22:13.440Z,19.80
2018-08-22T07:24:41.715Z,20.10
2018-08-22T07:27:09.958Z,20.50
2018-08-22T07:29:38.126Z,20.90
2018-08-22T07:32:06.289Z,21.90
2018-08-22T07:34:34.452Z,23.00
2018-08-22T07:37:02.552Z,24.40
2018-08-22T07:39:30.664Z,25.00
2018-08-22T07:41:58.832Z,26.10
2018-08-22T07:44:26.953Z,26.50
2018-08-22T07:46:55.123Z,27.10
2018-08-22T07:49:23.290Z,27.40
2018-08-22T07:51:51.421Z,28.00
2018-08-22T07:54:19.602Z,28.30
2018-08-22T07:56:47.721Z,28.70
2018-08-22T07:59:19.321Z,28.90
2018-08-22T08:01:47.462Z,29.20
2018-08-22T08:04:15.601Z,29.20
2018-08-22T08:06:43.702Z,30.20
2018-08-22T08:09:13.136Z,30.70
2018-08-22T08:11:41.291Z,31.10
2018-08-22T08:14:09.625Z,31.40
2018-08-22T08:16:37.760Z,31.20
2018-08-22T08:19:06.816Z,31.70
2018-08-22T08:21:34.961Z,32.10
2018-08-22T08:24:09.859Z,31.20
2018-08-22T08:26:38.012Z,30.90
2018-08-22T08:29:06.228Z,31.00
2018-08-22T08:31:34.381Z,31.50
2018-08-22T08:34:02.500Z,31.80
2018-08-22T08:36:30.606Z,31.90
2018-08-22T08:38:58.797Z,31.10
2018-08-22T08:41:26.993Z,30.90
2018-08-22T08:43:55.142Z,30.70
2018-08-22T08:46:23.237Z,31.20
2018-08-22T08:48:51.473Z,31.50
2018-08-22T08:51:19.924Z,32.20
2018-08-22T08:53:48.106Z,32.00
2018-08-22T08:56:16.235Z,33.20
2018-08-22T08:58:44.374Z,33.10
2018-08-22T09:01:12.456Z,33.00
2018-08-22T09:03:40.626Z,32.70
2018-08-22T09:06:08.785Z,32.90
2018-08-22T09:08:36.950Z,33.00
2018-08-22T09:11:05.123Z,32.50
2018-08-22T09:13:33.244Z,32.20
2018-08-22T09:16:01.628Z,33.20
2018-08-22T09:18:29.766Z,32.70
2018-08-22T09:20:57.934Z,32.60
2018-08-22T09:23:26.378Z,32.10
2018-08-22T09:25:54.538Z,32.00
2018-08-22T09:28:22.673Z,32.50
2018-08-22T09:30:50.808Z,32.60
2018-08-22T09:33:19.097Z,32.70
2018-08-22T09:35:47.308Z,32.40
2018-08-22T09:38:15.454Z,32.80
2018-08-22T09:40:43.520Z,33.30
2018-08-22T09:43:11.682Z,32.80
2018-08-22T09:45:39.784Z,32.80
2018-08-22T09:48:07.890Z,32.70
2018-08-22T09:50:36.047Z,32.60
2018-08-22T09:53:04.218Z,33.00
2018-08-22T09:55:32.348Z,33.40
2018-08-22T09:58:00.412Z,33.00
2018-08-22T10:00:34.127Z,32.80
2018-08-22T10:03:02.310Z,33.00
2018-08-22T10:05:30.436Z,31.60
2018-08-22T10:07:58.577Z,31.50
2018-08-22T10:10:26.766Z,31.40
2018-08-22T10:12:54.840Z,30.60
2018-08-22T10:15:23.010Z,30.30
2018-08-22T10:17:51.130Z,30.10
2018-08-22T10:21:23.097Z,29.80
2018-08-22T10:23:51.244Z,29.90
2018-08-22T10:26:19.781Z,29.70
2018-08-22T10:28:47.969Z,29.50
2018-08-22T10:31:16.130Z,29.80
2018-08-22T10:33:44.289Z,30.60
2018-08-22T10:36:12.422Z,31.30
2018-08-22T10:38:40.575Z,32.20
2018-08-22T10:41:09.139Z,32.30
2018-08-22T10:43:37.251Z,31.90
2018-08-22T10:46:05.550Z,31.60
2018-08-22T10:48:33.731Z,30.90
2018-08-22T10:51:01.865Z,31.20
2018-08-22T10:53:29.986Z,32.00
2018-08-22T10:55:58.245Z,32.70
2018-08-22T10:58:26.308Z,32.70
2018-08-22T11:00:54.436Z,33.00
2018-08-22T11:03:22.561Z,33.00
2018-08-22T11:05:50.704Z,33.40
2018-08-22T11:08:18.763Z,33.70
2018-08-22T11:10:46.933Z,34.50
2018-08-22T11:13:15.095Z,33.70
2018-08-22T11:15:43.330Z,33.80
2018-08-22T11:18:11.396Z,34.10
2018-08-22T11:20:44.731Z,34.40
2018-08-22T11:23:25.252Z,34.00
2018-08-22T11:26:04.841Z,33.20
2018-08-22T11:28:45.229Z,32.30
2018-08-22T11:31:25.529Z,31.90
2018-08-22T11:34:04.939Z,31.60
2018-08-22T11:36:33.043Z,31.70
2018-08-22T11:39:01.286Z,31.90
2018-08-22T11:41:30.119Z,31.20
2018-08-22T11:43:58.240Z,30.80
2018-08-22T11:46:26.360Z,30.50
2018-08-22T11:48:54.436Z,30.50
2018-08-22T11:51:22.549Z,30.60
2018-08-22T11:53:50.651Z,30.70
2018-08-22T11:56:18.785Z,30.80
2018-08-22T11:58:46.916Z,31.00
2018-08-22T12:01:15.040Z,31.10
2018-08-22T12:03:43.149Z,30.70
2018-08-22T12:06:11.267Z,30.40
2018-08-22T12:08:39.401Z,30.10
2018-08-22T12:11:07.486Z,30.20
2018-08-22T12:13:35.555Z,30.50
2018-08-22T12:16:03.686Z,30.40
2018-08-22T12:18:31.849Z,30.00
2018-08-22T12:20:59.955Z,29.90
2018-08-22T12:23:28.386Z,30.10
2018-08-22T12:25:56.450Z,29.90
2018-08-22T12:28:24.566Z,30.10
2018-08-22T12:30:52.738Z,30.10
2018-08-22T12:33:20.868Z,30.20
2018-08-22T12:35:49.040Z,30.30
2018-08-22T12:38:17.237Z,30.10
2018-08-22T12:40:45.401Z,30.10
2018-08-22T12:43:13.490Z,31.00
2018-08-22T12:45:41.643Z,32.00
2018-08-22T12:48:09.802Z,32.00
2018-08-22T12:50:37.988Z,31.50
2018-08-22T12:53:06.258Z,31.50
2018-08-22T12:55:34.393Z,31.40
2018-08-22T12:58:02.546Z,31.10
2018-08-22T13:00:30.673Z,30.50
2018-08-22T13:02:58.989Z,30.10
2018-08-22T13:05:27.168Z,30.10
2018-08-22T13:07:55.311Z,30.20
2018-08-22T13:10:23.469Z,30.30
2018-08-22T13:12:51.609Z,30.20
2018-08-22T13:15:19.727Z,30.20
2018-08-22T13:17:47.878Z,30.10
2018-08-22T13:20:16.025Z,30.40
2018-08-22T13:22:44.204Z,30.70
2018-08-22T13:25:12.342Z,31.00
2018-08-22T13:27:40.564Z,31.00
2018-08-22T13:30:08.708Z,31.20
2018-08-22T13:32:37.181Z,31.30
2018-08-22T13:35:05.379Z,31.40
2018-08-22T13:37:33.550Z,31.20
2018-08-22T13:40:01.770Z,31.10
2018-08-22T13:42:29.985Z,31.10
2018-08-22T13:44:58.362Z,31.50
2018-08-22T13:47:26.516Z,32.20
2018-08-22T13:49:55.112Z,32.50
2018-08-22T13:52:23.377Z,32.10
2018-08-22T13:54:51.512Z,32.10
2018-08-22T13:57:19.642Z,32.50
2018-08-22T13:59:47.839Z,32.90
2018-08-22T14:02:15.929Z,32.70
2018-08-22T14:04:44.156Z,32.20
2018-08-22T14:07:12.324Z,31.70
2018-08-22T14:09:40.584Z,32.10
2018-08-22T14:12:08.993Z,32.40
2018-08-22T14:14:37.101Z,32.00
2018-08-22T14:17:05.288Z,31.60
2018-08-22T14:19:33.545Z,31.20
2018-08-22T14:22:01.719Z,30.90
2018-08-22T14:25:59.563Z,30.80
2018-08-22T14:28:27.651Z,30.50
2018-08-22T14:30:55.818Z,30.10
2018-08-22T14:33:24.366Z,30.10
2018-08-22T14:35:52.640Z,30.30
2018-08-22T14:38:21.113Z,30.20
2018-08-22T14:40:49.298Z,30.00
2018-08-22T14:43:17.521Z,29.70
2018-08-22T14:45:45.685Z,29.60
2018-08-22T14:48:13.897Z,29.60
2018-08-22T14:50:42.195Z,29.60
2018-08-22T14:53:10.359Z,29.40
2018-08-22T14:55:38.491Z,29.20
2018-08-22T14:58:06.699Z,29.20
2018-08-22T15:00:34.894Z,29.20
2018-08-22T15:03:03.571Z,29.30
2018-08-22T15:05:31.563Z,29.30
2018-08-22T15:07:59.745Z,29.20
2018-08-22T15:10:27.969Z,29.10
2018-08-22T15:12:56.125Z,29.10
2018-08-22T15:15:24.323Z,29.10
2018-08-22T15:17:52.442Z,29.10
2018-08-22T15:21:23.633Z,29.10
2018-08-22T15:23:52.657Z,29.10
2018-08-22T15:26:20.819Z,29.00
2018-08-22T15:28:49.211Z,29.00
2018-08-22T15:31:17.309Z,29.00
2018-08-22T15:33:45.624Z,29.00
2018-08-22T15:36:13.859Z,29.00
2018-08-22T15:38:41.997Z,28.90
2018-08-22T15:41:10.156Z,28.90
2018-08-22T15:43:38.253Z,28.90
2018-08-22T15:46:06.474Z,28.80
2018-08-22T15:48:34.629Z,28.80
2018-08-22T15:51:02.802Z,28.80
2018-08-22T15:53:31.388Z,28.80
2018-08-22T15:55:59.624Z,28.70
2018-08-22T15:58:27.725Z,28.70
2018-08-22T16:00:55.965Z,28.70
2018-08-22T16:03:25.911Z,28.70
2018-08-22T16:05:55.352Z,28.50
2018-08-22T16:08:24.920Z,28.50
2018-08-22T16:10:53.053Z,28.40
2018-08-22T16:13:26.838Z,28.40
2018-08-22T16:15:56.223Z,28.40
2018-08-22T16:18:24.379Z,28.40
2018-08-22T16:20:54.173Z,28.30
2018-08-22T16:23:33.008Z,28.30
2018-08-22T16:26:02.266Z,28.20
2018-08-22T16:29:01.271Z,28.20
2018-08-22T16:31:46.062Z,28.10
2018-08-22T16:34:15.460Z,28.00
2018-08-22T16:36:43.660Z,28.00
2018-08-22T16:39:12.154Z,28.00
2018-08-22T16:41:40.381Z,27.90
2018-08-22T16:44:08.585Z,27.80
2018-08-22T16:46:36.818Z,27.80
2018-08-22T16:49:04.951Z,27.70
2018-08-22T16:51:33.142Z,27.60
2018-08-22T16:54:06.652Z,27.50
2018-08-22T16:56:35.265Z,27.50
2018-08-22T16:59:11.110Z,27.40
2018-08-22T17:01:40.977Z,27.40
2018-08-22T17:04:09.100Z,27.30
2018-08-22T17:06:37.233Z,27.30
2018-08-22T17:09:07.604Z,27.30
2018-08-22T17:11:35.713Z,27.10
2018-08-22T17:14:04.192Z,27.10
2018-08-22T17:16:32.280Z,27.10
2018-08-22T17:19:00.388Z,27.00
2018-08-22T17:21:28.505Z,27.00
2018-08-22T17:23:56.604Z,26.90
2018-08-22T17:26:25.061Z,26.90
2018-08-22T17:28:55.306Z,26.80
2018-08-22T17:31:24.617Z,26.70
2018-08-22T17:33:55.530Z,26.70
2018-08-22T17:36:23.753Z,26.60
2018-08-22T17:38:53.447Z,26.60
2018-08-22T17:41:22.763Z,26.50
2018-08-22T17:44:06.318Z,26.50
2018-08-22T17:46:37.657Z,26.30
2018-08-22T17:49:05.777Z,26.20
2018-08-22T17:51:54.145Z,26.10
2018-08-22T17:54:22.316Z,26.00
2018-08-22T17:56:57.014Z,25.90
2018-08-22T17:59:25.442Z,25.80
2018-08-22T18:01:53.633Z,25.70
2018-08-22T18:04:22.262Z,25.60
2018-08-22T18:06:50.937Z,25.50
2018-08-22T18:09:19.037Z,25.40
2018-08-22T18:11:47.136Z,25.20
2018-08-22T18:14:15.589Z,25.10
2018-08-22T18:16:44.798Z,25.00
2018-08-22T18:19:14.014Z,24.90
2018-08-22T18:21:47.028Z,24.80
2018-08-22T18:24:15.172Z,24.60
2018-08-22T18:26:46.121Z,24.60
2018-08-22T18:29:14.414Z,24.40
2018-08-22T18:31:42.581Z,24.20
2018-08-22T18:34:11.228Z,24.20
2018-08-22T18:36:39.448Z,24.10
2018-08-22T18:39:08.917Z,24.00
2018-08-22T18:41:37.392Z,23.80
2018-08-22T18:44:05.940Z,23.60
2018-08-22T18:46:34.204Z,23.50
2018-08-22T18:49:03.018Z,23.50
2018-08-22T18:51:31.314Z,23.40
2018-08-22T18:53:59.919Z,23.30
2018-08-22T18:56:28.161Z,23.30
2018-08-22T18:58:56.290Z,23.20
2018-08-22T19:01:24.353Z,23.10
2018-08-22T19:03:52.881Z,23.10
2018-08-22T19:06:20.999Z,23.00
2018-08-22T19:08:49.076Z,22.80
2018-08-22T19:11:17.135Z,22.70
2018-08-22T19:13:45.224Z,22.60
2018-08-22T19:16:13.443Z,22.60
2018-08-22T19:18:41.564Z,22.50
2018-08-22T19:21:10.820Z,22.40
2018-08-22T19:23:39.102Z,22.40
2018-08-22T19:26:07.957Z,22.30
2018-08-22T19:28:53.016Z,22.20
2018-08-22T19:31:21.158Z,22.20
2018-08-22T19:33:49.335Z,22.10
2018-08-22T19:36:17.440Z,22.00
2018-08-22T19:38:45.544Z,21.90
2018-08-22T19:41:22.221Z,21.80
2018-08-22T19:43:50.476Z,21.80
2018-08-22T19:46:18.804Z,21.70
2018-08-22T19:48:47.142Z,21.70
2018-08-22T19:51:15.290Z,21.60
2018-08-22T19:53:55.642Z,21.60
2018-08-22T19:56:24.165Z,21.60
2018-08-22T19:58:52.250Z,21.40
2018-08-22T20:01:20.965Z,21.40
2018-08-22T20:03:52.607Z,21.40
2018-08-22T20:06:21.429Z,21.30
2018-08-22T20:08:52.698Z,21.20
2018-08-22T20:11:21.014Z,21.20
2018-08-22T20:13:57.752Z,21.10
2018-08-22T20:16:26.143Z,21.10
2018-08-22T20:18:56.550Z,21.10
2018-08-22T20:21:31.771Z,21.00
2018-08-22T20:24:03.555Z,21.00
2018-08-22T20:26:32.380Z,21.00
2018-08-22T20:29:02.265Z,20.90
2018-08-22T20:31:30.496Z,20.90
2018-08-22T20:34:14.746Z,20.80
2018-08-22T20:36:44.293Z,20.80
2018-08-22T20:39:13.478Z,20.70
2018-08-22T20:41:42.344Z,20.70
2018-08-22T20:44:13.636Z,20.70
2018-08-22T20:46:43.887Z,20.60
2018-08-22T20:49:12.177Z,20.60
2018-08-22T20:51:40.412Z,20.50
2018-08-22T20:54:10.012Z,20.50
2018-08-22T20:56:45.539Z,20.40
2018-08-22T20:59:14.884Z,20.40
2018-08-22T21:01:44.664Z,20.40
2018-08-22T21:04:12.837Z,20.30
2018-08-22T21:06:40.977Z,20.40
2018-08-22T21:09:09.130Z,20.40
2018-08-22T21:11:38.369Z,20.40
2018-08-22T21:14:07.050Z,20.30
2018-08-22T21:16:35.626Z,20.20
2018-08-22T21:19:04.658Z,20.20
2018-08-22T21:21:32.972Z,20.20
2018-08-22T21:24:01.092Z,20.10
2018-08-22T21:26:38.735Z,20.00
2018-08-22T21:29:06.908Z,20.00
2018-08-22T21:31:35.797Z,19.90
2018-08-22T21:34:10.538Z,19.90
2018-08-22T21:36:40.124Z,19.90
2018-08-22T21:39:13.417Z,19.90
2018-08-22T21:41:42.696Z,19.80
2018-08-22T21:44:14.147Z,19.70
2018-08-22T21:46:42.517Z,19.70
2018-08-22T21:49:13.645Z,19.60
2018-08-22T21:51:42.203Z,19.60
2018-08-22T21:54:11.644Z,19.60
2018-08-22T21:56:40.244Z,19.50
2018-08-22T21:59:08.958Z,19.40
2018-08-22T22:01:46.560Z,19.50
2018-08-22T22:04:19.947Z,19.50
2018-08-22T22:06:48.021Z,19.40
2018-08-22T22:09:16.187Z,19.40
2018-08-22T22:11:44.889Z,19.30
2018-08-22T22:14:18.369Z,19.20
2018-08-22T22:16:46.553Z,19.30
2018-08-22T22:19:14.793Z,19.20
2018-08-22T22:21:43.052Z,19.20
2018-08-22T22:24:11.128Z,19.10
2018-08-22T22:26:39.293Z,19.10
2018-08-22T22:29:07.566Z,19.10
2018-08-22T22:31:36.027Z,19.00
2018-08-22T22:34:04.325Z,19.00
2018-08-22T22:36:33.534Z,19.00
2018-08-22T22:39:01.655Z,19.00
2018-08-22T22:41:31.333Z,18.90
2018-08-22T22:43:59.582Z,18.90
2018-08-22T22:46:27.957Z,18.90
2018-08-22T22:48:56.468Z,18.90
2018-08-22T22:51:24.731Z,18.80
2018-08-22T22:53:52.831Z,18.80
2018-08-22T22:56:20.928Z,18.80
2018-08-22T22:58:49.025Z,18.70
2018-08-22T23:01:17.157Z,18.70
2018-08-22T23:03:45.314Z,18.70
2018-08-22T23:06:13.490Z,18.60
2018-08-22T23:08:41.666Z,18.60
2018-08-22T23:11:09.838Z,18.60
2018-08-22T23:13:37.992Z,18.50
2018-08-22T23:16:06.183Z,18.50
2018-08-22T23:18:34.432Z,18.40
2018-08-22T23:21:02.676Z,18.50
2018-08-22T23:23:32.216Z,18.40
2018-08-22T23:26:07.702Z,18.40
2018-08-22T23:28:35.867Z,18.40
2018-08-22T23:31:04.049Z,18.30
2018-08-22T23:33:32.190Z,18.30
2018-08-22T23:36:00.296Z,18.30
2018-08-22T23:38:29.446Z,18.20
2018-08-22T23:40:57.953Z,18.20
2018-08-22T23:43:26.127Z,18.20
2018-08-22T23:45:55.619Z,18.10
2018-08-22T23:48:29.199Z,18.10
2018-08-22T23:50:59.624Z,18.00
2018-08-22T23:53:29.230Z,18.00
2018-08-22T23:56:10.069Z,18.00
2018-08-22T23:58:38.826Z,17.90
